createdAt,value
2018-09-06T00:00:34.208Z,1007.66
2018-09-06T00:01:34.198Z,1007.67
2018-09-06T00:02:34.208Z,1007.67
2018-09-06T00:03:34.176Z,1007.67
2018-09-06T00:04:34.162Z,1007.64
2018-09-06T00:05:34.151Z,1007.67
2018-09-06T00:06:34.140Z,1007.68
2018-09-06T00:07:34.152Z,1007.67
2018-09-06T00:08:34.117Z,1007.65
2018-09-06T00:09:34.105Z,1007.65
2018-09-06T00:10:34.096Z,1007.65
2018-09-06T00:11:34.083Z,1007.63
2018-09-06T00:12:34.095Z,1007.63
2018-09-06T00:13:34.059Z,1007.62
2018-09-06T00:14:34.048Z,1007.60
2018-09-06T00:15:34.037Z,1007.61
2018-09-06T00:16:34.026Z,1007.61
2018-09-06T00:17:34.040Z,1007.61
2018-09-06T00:18:34.003Z,1007.57
2018-09-06T00:19:33.996Z,1007.57
2018-09-06T00:20:33.982Z,1007.57
2018-09-06T00:21:33.969Z,1007.59
2018-09-06T00:22:33.982Z,1007.57
2018-09-06T00:23:33.947Z,1007.60
2018-09-06T00:24:33.935Z,1007.57
2018-09-06T00:25:33.925Z,1007.56
2018-09-06T00:26:33.923Z,1007.57
2018-09-06T00:27:33.926Z,1007.57
2018-09-06T00:28:33.893Z,1007.55
2018-09-06T00:29:33.881Z,1007.54
2018-09-06T00:30:33.872Z,1007.58
2018-09-06T00:31:33.857Z,1007.54
2018-09-06T00:32:33.873Z,1007.59
2018-09-06T00:33:33.835Z,1007.58
2018-09-06T00:34:33.824Z,1007.55
2018-09-06T00:35:33.812Z,1007.56
2018-09-06T00:36:33.800Z,1007.56
2018-09-06T00:37:33.814Z,1007.57
2018-09-06T00:38:33.778Z,1007.59
2018-09-06T00:39:33.767Z,1007.56
2018-09-06T00:40:33.755Z,1007.58
2018-09-06T00:41:33.744Z,1007.55
2018-09-06T00:42:33.756Z,1007.59
2018-09-06T00:43:33.721Z,1007.55
2018-09-06T00:44:33.710Z,1007.57
2018-09-06T00:45:33.698Z,1007.53
2018-09-06T00:46:33.688Z,1007.55
2018-09-06T00:47:33.699Z,1007.57
2018-09-06T00:48:33.663Z,1007.57
2018-09-06T00:49:33.652Z,1007.58
2018-09-06T00:50:33.641Z,1007.63
2018-09-06T00:51:33.629Z,1007.65
2018-09-06T00:52:33.642Z,1007.66
2018-09-06T00:53:33.607Z,1007.67
2018-09-06T00:54:33.595Z,1007.64
2018-09-06T00:55:33.587Z,1007.58
2018-09-06T00:56:33.573Z,1007.61
2018-09-06T00:57:33.590Z,1007.61
2018-09-06T00:58:33.549Z,1007.58
2018-09-06T00:59:33.539Z,1007.57
2018-09-06T01:00:33.527Z,1007.58
2018-09-06T01:01:33.516Z,1007.55
2018-09-06T01:02:33.527Z,1007.55
2018-09-06T01:03:33.493Z,1007.55
2018-09-06T01:04:33.483Z,1007.53
2018-09-06T01:05:33.471Z,1007.53
2018-09-06T01:06:33.460Z,1007.53
2018-09-06T01:07:33.473Z,1007.55
2018-09-06T01:08:33.436Z,1007.54
2018-09-06T01:09:33.425Z,1007.58
2018-09-06T01:10:33.413Z,1007.59
2018-09-06T01:11:33.403Z,1007.61
2018-09-06T01:12:33.393Z,1007.56
2018-09-06T01:13:33.405Z,1007.60
2018-09-06T01:14:33.368Z,1007.62
2018-09-06T01:15:33.357Z,1007.63
2018-09-06T01:16:33.347Z,1007.55
2018-09-06T01:17:33.338Z,1007.56
2018-09-06T01:18:33.347Z,1007.56
2018-09-06T01:19:33.316Z,1007.53
2018-09-06T01:20:33.299Z,1007.55
2018-09-06T01:21:33.290Z,1007.47
2018-09-06T01:22:33.280Z,1007.45
2018-09-06T01:23:33.290Z,1007.50
2018-09-06T01:24:33.258Z,1007.49
2018-09-06T01:25:33.243Z,1007.50
2018-09-06T01:26:33.234Z,1007.51
2018-09-06T01:27:33.222Z,1007.50
2018-09-06T01:28:33.233Z,1007.55
2018-09-06T01:29:33.199Z,1007.50
2018-09-06T01:30:33.188Z,1007.53
2018-09-06T01:31:33.177Z,1007.56
2018-09-06T01:32:33.164Z,1007.56
2018-09-06T01:33:33.179Z,1007.51
2018-09-06T01:34:33.142Z,1007.54
2018-09-06T01:35:33.132Z,1007.55
2018-09-06T01:36:33.119Z,1007.56
2018-09-06T01:37:33.109Z,1007.53
2018-09-06T01:38:33.213Z,1007.52
2018-09-06T01:39:33.085Z,1007.51
2018-09-06T01:40:33.075Z,1007.48
2018-09-06T01:41:33.065Z,1007.47
2018-09-06T01:42:33.052Z,1007.44
2018-09-06T01:43:33.062Z,1007.44
2018-09-06T01:44:33.030Z,1007.45
2018-09-06T01:45:33.021Z,1007.45
2018-09-06T01:46:33.007Z,1007.43
2018-09-06T01:47:32.998Z,1007.47
2018-09-06T01:48:33.006Z,1007.40
2018-09-06T01:49:32.974Z,1007.48
2018-09-06T01:50:32.962Z,1007.47
2018-09-06T01:51:32.952Z,1007.45
2018-09-06T01:52:32.940Z,1007.40
2018-09-06T01:53:32.950Z,1007.44
2018-09-06T01:54:32.916Z,1007.48
2018-09-06T01:55:32.906Z,1007.49
2018-09-06T01:56:32.893Z,1007.44
2018-09-06T01:57:32.886Z,1007.50
2018-09-06T01:58:32.896Z,1007.51
2018-09-06T01:59:32.858Z,1007.48
2018-09-06T02:00:32.850Z,1007.52
2018-09-06T02:01:32.838Z,1007.48
2018-09-06T02:02:32.826Z,1007.50
2018-09-06T02:03:32.837Z,1007.50
2018-09-06T02:04:32.803Z,1007.46
2018-09-06T02:05:32.791Z,1007.43
2018-09-06T02:06:32.783Z,1007.42
2018-09-06T02:07:32.770Z,1007.44
2018-09-06T02:08:32.780Z,1007.44
2018-09-06T02:09:32.747Z,1007.45
2018-09-06T02:10:32.735Z,1007.39
2018-09-06T02:11:32.724Z,1007.39
2018-09-06T02:12:32.711Z,1007.33
2018-09-06T02:13:32.727Z,1007.32
2018-09-06T02:14:32.690Z,1007.32
2018-09-06T02:15:32.682Z,1007.33
2018-09-06T02:16:32.671Z,1007.30
2018-09-06T02:17:32.655Z,1007.24
2018-09-06T02:18:32.668Z,1007.26
2018-09-06T02:19:32.633Z,1007.24
2018-09-06T02:20:32.621Z,1007.27
2018-09-06T02:21:32.609Z,1007.26
2018-09-06T02:22:32.604Z,1007.27
2018-09-06T02:23:32.613Z,1007.30
2018-09-06T02:24:32.737Z,1007.24
2018-09-06T02:25:32.566Z,1007.27
2018-09-06T02:26:32.554Z,1007.29
2018-09-06T02:27:32.541Z,1007.23
2018-09-06T02:28:32.555Z,1007.20
2018-09-06T02:29:32.522Z,1007.23
2018-09-06T02:30:32.509Z,1007.21
2018-09-06T02:31:32.498Z,1007.20
2018-09-06T02:32:32.485Z,1007.16
2018-09-06T02:33:32.499Z,1007.13
2018-09-06T02:34:32.465Z,1007.18
2018-09-06T02:35:32.452Z,1007.18
2018-09-06T02:36:32.440Z,1007.19
2018-09-06T02:37:32.429Z,1007.12
2018-09-06T02:38:32.442Z,1007.15
2018-09-06T02:39:32.407Z,1007.13
2018-09-06T02:40:32.399Z,1007.11
2018-09-06T02:41:32.385Z,1007.10
2018-09-06T02:42:32.371Z,1007.10
2018-09-06T02:43:32.363Z,1007.08
2018-09-06T02:44:32.376Z,1007.11
2018-09-06T02:45:32.338Z,1007.06
2018-09-06T02:46:32.327Z,1007.09
2018-09-06T02:47:32.318Z,1007.07
2018-09-06T02:48:32.333Z,1007.04
2018-09-06T02:49:32.294Z,1007.05
2018-09-06T02:50:32.283Z,1007.03
2018-09-06T02:51:32.271Z,1007.02
2018-09-06T02:52:32.260Z,1007.02
2018-09-06T02:53:32.249Z,1007.04
2018-09-06T02:54:32.259Z,1007.04
2018-09-06T02:55:32.226Z,1007.09
2018-09-06T02:56:32.215Z,1007.05
2018-09-06T02:57:32.203Z,1007.11
2018-09-06T02:58:32.197Z,1007.24
2018-09-06T02:59:32.204Z,1007.26
2018-09-06T03:00:32.172Z,1007.41
2018-09-06T03:01:32.158Z,1007.47
2018-09-06T03:02:32.147Z,1007.51
2018-09-06T03:03:32.136Z,1007.59
2018-09-06T03:04:32.148Z,1007.60
2018-09-06T03:05:32.112Z,1007.59
2018-09-06T03:06:32.109Z,1007.57
2018-09-06T03:07:32.089Z,1007.53
2018-09-06T03:08:32.081Z,1007.51
2018-09-06T03:09:32.090Z,1007.42
2018-09-06T03:10:32.055Z,1007.42
2018-09-06T03:11:32.045Z,1007.37
2018-09-06T03:12:32.033Z,1007.34
2018-09-06T03:13:32.022Z,1007.36
2018-09-06T03:14:32.034Z,1007.35
2018-09-06T03:15:32.079Z,1007.36
2018-09-06T03:16:31.995Z,1007.39
2018-09-06T03:17:31.977Z,1007.39
2018-09-06T03:18:31.965Z,1007.39
2018-09-06T03:19:31.982Z,1007.38
2018-09-06T03:20:31.943Z,1007.40
2018-09-06T03:21:31.932Z,1007.39
2018-09-06T03:22:31.920Z,1007.38
2018-09-06T03:23:31.909Z,1007.33
2018-09-06T03:24:31.920Z,1007.29
2018-09-06T03:25:31.885Z,1007.32
2018-09-06T03:26:31.875Z,1007.34
2018-09-06T03:27:31.867Z,1007.41
2018-09-06T03:28:31.853Z,1007.38
2018-09-06T03:29:31.869Z,1007.44
2018-09-06T03:30:31.830Z,1007.38
2018-09-06T03:31:31.821Z,1007.38
2018-09-06T03:32:31.808Z,1007.36
2018-09-06T03:33:31.805Z,1007.37
2018-09-06T03:34:31.808Z,1007.32
2018-09-06T03:35:31.774Z,1007.30
2018-09-06T03:36:31.767Z,1007.31
2018-09-06T03:37:31.752Z,1007.27
2018-09-06T03:38:31.739Z,1007.29
2018-09-06T03:39:31.752Z,1007.27
2018-09-06T03:40:31.718Z,1007.30
2018-09-06T03:41:31.707Z,1007.28
2018-09-06T03:42:31.694Z,1007.26
2018-09-06T03:43:31.682Z,1007.28
2018-09-06T03:44:31.756Z,1007.25
2018-09-06T03:45:31.659Z,1007.22
2018-09-06T03:46:31.652Z,1007.16
2018-09-06T03:47:31.639Z,1007.11
2018-09-06T03:48:31.626Z,1007.15
2018-09-06T03:49:31.639Z,1007.16
2018-09-06T03:50:31.604Z,1007.17
2018-09-06T03:51:31.596Z,1007.15
2018-09-06T03:52:31.593Z,1007.11
2018-09-06T03:53:31.571Z,1007.08
2018-09-06T03:54:31.587Z,1007.05
2018-09-06T03:55:31.550Z,1007.01
2018-09-06T03:56:31.536Z,1007.04
2018-09-06T03:57:31.531Z,1007.00
2018-09-06T03:58:31.513Z,1007.01
2018-09-06T03:59:31.534Z,1007.02
2018-09-06T04:00:31.497Z,1007.00
2018-09-06T04:01:31.479Z,1006.91
2018-09-06T04:02:31.475Z,1006.93
2018-09-06T04:03:31.455Z,1006.94
2018-09-06T04:04:31.470Z,1006.90
2018-09-06T04:05:31.433Z,1006.91
2018-09-06T04:06:31.430Z,1006.92
2018-09-06T04:07:31.412Z,1006.90
2018-09-06T04:08:31.401Z,1006.89
2018-09-06T04:09:31.415Z,1006.89
2018-09-06T04:10:31.379Z,1006.90
2018-09-06T04:11:31.367Z,1006.92
2018-09-06T04:12:31.359Z,1006.89
2018-09-06T04:13:31.346Z,1006.92
2018-09-06T04:14:31.361Z,1006.91
2018-09-06T04:15:31.322Z,1006.93
2018-09-06T04:16:31.311Z,1006.90
2018-09-06T04:17:31.299Z,1006.90
2018-09-06T04:18:31.396Z,1006.93
2018-09-06T04:19:31.312Z,1006.93
2018-09-06T04:20:31.268Z,1006.95
2018-09-06T04:21:31.254Z,1006.92
2018-09-06T04:22:31.250Z,1006.92
2018-09-06T04:23:31.238Z,1006.93
2018-09-06T04:24:31.248Z,1006.93
2018-09-06T04:25:31.211Z,1006.91
2018-09-06T04:26:31.201Z,1006.92
2018-09-06T04:27:31.189Z,1006.90
2018-09-06T04:28:31.176Z,1006.91
2018-09-06T04:29:31.167Z,1006.91
2018-09-06T04:30:31.177Z,1006.92
2018-09-06T04:31:31.147Z,1006.90
2018-09-06T04:32:31.131Z,1006.89
2018-09-06T04:33:31.121Z,1006.93
2018-09-06T04:34:31.113Z,1006.90
2018-09-06T04:35:31.159Z,1006.94
2018-09-06T04:36:31.088Z,1006.89
2018-09-06T04:37:31.076Z,1006.91
2018-09-06T04:38:31.065Z,1006.91
2018-09-06T04:39:31.061Z,1006.91
2018-09-06T04:40:31.066Z,1006.89
2018-09-06T04:41:31.031Z,1006.87
2018-09-06T04:42:31.020Z,1006.85
2018-09-06T04:43:31.008Z,1006.83
2018-09-06T04:44:31.001Z,1006.81
2018-09-06T04:45:31.008Z,1006.79
2018-09-06T04:46:30.975Z,1006.80
2018-09-06T04:47:30.962Z,1006.77
2018-09-06T04:48:30.951Z,1006.78
2018-09-06T04:49:30.942Z,1006.74
2018-09-06T04:50:30.953Z,1006.74
2018-09-06T04:51:30.919Z,1006.73
2018-09-06T04:52:30.908Z,1006.76
2018-09-06T04:53:30.899Z,1006.75
2018-09-06T04:54:30.886Z,1006.66
2018-09-06T04:55:30.898Z,1006.78
2018-09-06T04:56:30.862Z,1006.76
2018-09-06T04:57:30.851Z,1006.69
2018-09-06T04:58:30.920Z,1006.75
2018-09-06T04:59:30.829Z,1006.75
2018-09-06T05:00:30.840Z,1006.83
2018-09-06T05:01:30.805Z,1006.84
2018-09-06T05:02:30.793Z,1006.85
2018-09-06T05:03:30.789Z,1006.89
2018-09-06T05:04:30.789Z,1006.89
2018-09-06T05:05:30.784Z,1006.93
2018-09-06T05:06:30.748Z,1006.93
2018-09-06T05:07:30.738Z,1006.94
2018-09-06T05:08:30.727Z,1006.93
2018-09-06T05:09:30.716Z,1006.88
2018-09-06T05:10:30.727Z,1006.91
2018-09-06T05:11:30.692Z,1006.85
2018-09-06T05:12:30.683Z,1006.80
2018-09-06T05:13:30.670Z,1006.85
2018-09-06T05:14:30.660Z,1006.78
2018-09-06T05:15:30.670Z,1006.78
2018-09-06T05:16:30.638Z,1006.75
2018-09-06T05:17:30.625Z,1006.78
2018-09-06T05:18:30.614Z,1006.72
2018-09-06T05:19:30.603Z,1006.73
2018-09-06T05:20:30.613Z,1006.71
2018-09-06T05:21:30.580Z,1006.65
2018-09-06T05:22:30.569Z,1006.60
2018-09-06T05:23:30.555Z,1006.59
2018-09-06T05:24:30.546Z,1006.52
2018-09-06T05:25:30.560Z,1006.56
2018-09-06T05:26:30.523Z,1006.56
2018-09-06T05:27:30.511Z,1006.57
2018-09-06T05:28:30.500Z,1006.58
2018-09-06T05:29:30.490Z,1006.60
2018-09-06T05:30:30.503Z,1006.59
2018-09-06T05:31:30.468Z,1006.59
2018-09-06T05:32:30.456Z,1006.56
2018-09-06T05:33:30.444Z,1006.55
2018-09-06T05:34:30.435Z,1006.52
2018-09-06T05:35:30.445Z,1006.52
2018-09-06T05:36:30.417Z,1006.58
2018-09-06T05:37:30.399Z,1006.52
2018-09-06T05:38:30.391Z,1006.52
2018-09-06T05:39:30.375Z,1006.52
2018-09-06T05:40:30.391Z,1006.49
2018-09-06T05:41:30.358Z,1006.46
2018-09-06T05:42:30.343Z,1006.47
2018-09-06T05:43:30.333Z,1006.46
2018-09-06T05:44:30.321Z,1006.47
2018-09-06T05:45:30.333Z,1006.48
2018-09-06T05:46:30.299Z,1006.48
2018-09-06T05:47:30.314Z,1006.48
2018-09-06T05:48:30.274Z,1006.48
2018-09-06T05:49:30.264Z,1006.51
2018-09-06T05:50:30.275Z,1006.50
2018-09-06T05:51:30.240Z,1006.58
2018-09-06T05:52:30.231Z,1006.63
2018-09-06T05:53:30.234Z,1006.66
2018-09-06T05:54:30.206Z,1006.75
2018-09-06T05:55:30.219Z,1006.77
2018-09-06T05:56:30.184Z,1006.82
2018-09-06T05:57:30.172Z,1006.84
2018-09-06T05:58:30.167Z,1006.79
2018-09-06T05:59:30.171Z,1006.87
2018-09-06T06:00:30.165Z,1006.83
2018-09-06T06:01:30.127Z,1006.85
2018-09-06T06:02:30.116Z,1006.81
2018-09-06T06:03:30.108Z,1006.82
2018-09-06T06:04:30.094Z,1006.78
2018-09-06T06:05:30.110Z,1006.79
2018-09-06T06:06:30.070Z,1006.75
2018-09-06T06:07:30.060Z,1006.75
2018-09-06T06:08:30.049Z,1006.76
2018-09-06T06:09:30.038Z,1006.73
2018-09-06T06:10:30.029Z,1006.70
2018-09-06T06:11:30.037Z,1006.73
2018-09-06T06:12:30.005Z,1006.76
2018-09-06T06:13:29.992Z,1006.78
2018-09-06T06:14:29.979Z,1006.76
2018-09-06T06:15:29.969Z,1006.76
2018-09-06T06:16:29.981Z,1006.79
2018-09-06T06:17:29.945Z,1006.77
2018-09-06T06:18:29.935Z,1006.77
2018-09-06T06:19:29.925Z,1006.81
2018-09-06T06:20:29.914Z,1006.76
2018-09-06T06:21:29.926Z,1006.84
2018-09-06T06:22:29.890Z,1006.90
2018-09-06T06:23:29.877Z,1006.87
2018-09-06T06:24:29.867Z,1006.87
2018-09-06T06:25:29.857Z,1006.92
2018-09-06T06:26:29.869Z,1006.90
2018-09-06T06:27:29.833Z,1006.92
2018-09-06T06:28:29.822Z,1006.89
2018-09-06T06:29:29.813Z,1006.84
2018-09-06T06:30:29.803Z,1006.85
2018-09-06T06:31:29.809Z,1006.86
2018-09-06T06:32:29.778Z,1006.86
2018-09-06T06:33:29.765Z,1006.86
2018-09-06T06:34:29.756Z,1006.74
2018-09-06T06:35:29.744Z,1006.73
2018-09-06T06:36:29.753Z,1006.72
2018-09-06T06:37:29.719Z,1006.71
2018-09-06T06:38:29.709Z,1006.72
2018-09-06T06:39:29.698Z,1006.68
2018-09-06T06:40:29.686Z,1006.69
2018-09-06T06:41:29.698Z,1006.64
2018-09-06T06:42:29.663Z,1006.60
2018-09-06T06:43:29.651Z,1006.64
2018-09-06T06:44:29.641Z,1006.62
2018-09-06T06:45:29.629Z,1006.59
2018-09-06T06:46:29.644Z,1006.60
2018-09-06T06:47:29.607Z,1006.60
2018-09-06T06:48:29.595Z,1006.60
2018-09-06T06:49:29.584Z,1006.58
2018-09-06T06:50:29.662Z,1006.58
2018-09-06T06:51:29.583Z,1006.59
2018-09-06T06:52:29.549Z,1006.59
2018-09-06T06:53:29.539Z,1006.57
2018-09-06T06:54:29.526Z,1006.56
2018-09-06T06:55:29.515Z,1006.58
2018-09-06T06:56:29.526Z,1006.60
2018-09-06T06:57:29.496Z,1006.61
2018-09-06T06:58:29.519Z,1006.61
2018-09-06T06:59:29.471Z,1006.61
2018-09-06T07:00:29.459Z,1006.58
2018-09-06T07:01:29.472Z,1006.56
2018-09-06T07:02:29.437Z,1006.56
2018-09-06T07:03:29.448Z,1006.57
2018-09-06T07:04:29.502Z,1006.59
2018-09-06T07:05:29.403Z,1006.62
2018-09-06T07:06:29.413Z,1006.64
2018-09-06T07:07:29.427Z,1006.61
2018-09-06T07:08:29.368Z,1006.65
2018-09-06T07:09:29.359Z,1006.67
2018-09-06T07:10:29.350Z,1006.67
2018-09-06T07:11:29.356Z,1006.67
2018-09-06T07:12:29.324Z,1006.69
2018-09-06T07:13:29.312Z,1006.66
2018-09-06T07:14:29.303Z,1006.65
2018-09-06T07:15:29.301Z,1006.71
2018-09-06T07:16:29.299Z,1006.69
2018-09-06T07:17:29.414Z,1006.73
2018-09-06T07:18:29.499Z,1006.72
2018-09-06T07:19:29.315Z,1006.67
2018-09-06T07:20:29.261Z,1006.73
2018-09-06T07:21:29.341Z,1006.73
2018-09-06T07:22:29.232Z,1006.75
2018-09-06T07:23:29.227Z,1006.73
2018-09-06T07:24:29.187Z,1006.70
2018-09-06T07:25:29.181Z,1006.71
2018-09-06T07:26:29.190Z,1006.68
2018-09-06T07:27:29.207Z,1006.68
2018-09-06T07:28:29.144Z,1006.68
2018-09-06T07:29:29.144Z,1006.74
2018-09-06T07:30:29.158Z,1006.74
2018-09-06T07:31:29.149Z,1006.76
2018-09-06T07:32:29.104Z,1006.81
2018-09-06T07:33:29.086Z,1006.78
2018-09-06T07:34:29.080Z,1006.79
2018-09-06T07:35:29.206Z,1006.80
2018-09-06T07:36:29.136Z,1006.78
2018-09-06T07:37:29.071Z,1006.85
2018-09-06T07:38:29.052Z,1006.82
2018-09-06T07:39:29.044Z,1006.84
2018-09-06T07:40:29.019Z,1006.87
2018-09-06T07:41:29.040Z,1006.86
2018-09-06T07:42:28.983Z,1006.86
2018-09-06T07:43:29.245Z,1006.84
2018-09-06T07:44:28.962Z,1006.86
2018-09-06T07:45:28.956Z,1006.84
2018-09-06T07:46:28.962Z,1006.82
2018-09-06T07:47:28.933Z,1006.84
2018-09-06T07:48:28.981Z,1006.89
2018-09-06T07:49:28.907Z,1006.83
2018-09-06T07:50:28.898Z,1006.88
2018-09-06T07:51:28.894Z,1006.83
2018-09-06T07:52:28.906Z,1006.84
2018-09-06T07:53:28.861Z,1006.84
2018-09-06T07:54:28.858Z,1006.83
2018-09-06T07:55:28.998Z,1006.82
2018-09-06T07:56:28.840Z,1006.81
2018-09-06T07:57:28.855Z,1006.80
2018-09-06T07:58:28.811Z,1006.84
2018-09-06T07:59:28.799Z,1006.82
2018-09-06T08:00:28.785Z,1006.88
2018-09-06T08:01:28.787Z,1006.90
2018-09-06T08:02:28.790Z,1006.90
2018-09-06T08:03:28.752Z,1006.92
2018-09-06T08:04:28.739Z,1006.92
2018-09-06T08:05:28.730Z,1006.87
2018-09-06T08:06:28.738Z,1006.93
2018-09-06T08:07:28.758Z,1006.86
2018-09-06T08:08:29.431Z,1006.91
2018-09-06T08:09:28.696Z,1006.88
2018-09-06T08:10:28.671Z,1006.88
2018-09-06T08:11:28.662Z,1006.89
2018-09-06T08:12:28.686Z,1006.96
2018-09-06T08:13:28.645Z,1006.94
2018-09-06T08:14:28.626Z,1006.95
2018-09-06T08:15:28.617Z,1006.93
2018-09-06T08:16:28.611Z,1006.95
2018-09-06T08:17:28.631Z,1006.89
2018-09-06T08:18:28.604Z,1006.91
2018-09-06T08:19:28.589Z,1006.91
2018-09-06T08:20:28.575Z,1006.92
2018-09-06T08:21:28.551Z,1006.93
2018-09-06T08:22:28.569Z,1006.92
2018-09-06T08:23:28.526Z,1006.94
2018-09-06T08:24:28.530Z,1006.95
2018-09-06T08:25:28.503Z,1006.99
2018-09-06T08:26:28.496Z,1006.93
2018-09-06T08:27:28.640Z,1006.95
2018-09-06T08:28:28.470Z,1006.94
2018-09-06T08:29:28.456Z,1006.99
2018-09-06T08:30:28.476Z,1006.93
2018-09-06T08:31:28.579Z,1006.92
2018-09-06T08:32:28.446Z,1006.94
2018-09-06T08:33:28.414Z,1006.96
2018-09-06T08:34:28.414Z,1006.94
2018-09-06T08:35:28.405Z,1006.97
2018-09-06T08:36:28.401Z,1006.93
2018-09-06T08:37:28.435Z,1006.89
2018-09-06T08:38:28.363Z,1006.92
2018-09-06T08:39:28.346Z,1006.85
2018-09-06T08:40:28.334Z,1006.87
2018-09-06T08:41:28.326Z,1006.92
2018-09-06T08:42:28.345Z,1006.92
2018-09-06T08:43:28.297Z,1006.88
2018-09-06T08:44:28.298Z,1006.95
2018-09-06T08:45:28.373Z,1006.94
2018-09-06T08:46:28.268Z,1006.92
2018-09-06T08:47:28.341Z,1006.91
2018-09-06T08:48:28.288Z,1006.95
2018-09-06T08:49:28.234Z,1006.93
2018-09-06T08:50:28.245Z,1006.93
2018-09-06T08:51:28.215Z,1006.94
2018-09-06T08:52:28.330Z,1006.94
2018-09-06T08:53:28.197Z,1006.98
2018-09-06T08:54:28.190Z,1006.99
2018-09-06T08:55:28.175Z,1007.02
2018-09-06T08:56:28.164Z,1007.02
2018-09-06T08:57:28.165Z,1006.98
2018-09-06T08:58:28.176Z,1007.00
2018-09-06T08:59:28.120Z,1007.02
2018-09-06T09:00:28.108Z,1007.02
2018-09-06T09:01:28.096Z,1007.03
2018-09-06T09:02:28.174Z,1006.99
2018-09-06T09:03:28.077Z,1006.99
2018-09-06T09:04:28.061Z,1006.99
2018-09-06T09:05:28.052Z,1006.99
2018-09-06T09:06:28.071Z,1006.94
2018-09-06T09:07:28.055Z,1007.01
2018-09-06T09:08:28.047Z,1007.01
2018-09-06T09:09:28.030Z,1006.99
2018-09-06T09:10:27.998Z,1006.98
2018-09-06T09:11:27.987Z,1007.00
2018-09-06T09:12:28.020Z,1006.96
2018-09-06T09:13:27.965Z,1006.98
2018-09-06T09:14:27.967Z,1006.95
2018-09-06T09:15:27.939Z,1007.00
2018-09-06T09:16:27.938Z,1006.98
2018-09-06T09:17:27.946Z,1006.97
2018-09-06T09:18:27.966Z,1006.99
2018-09-06T09:19:27.891Z,1006.95
2018-09-06T09:20:27.882Z,1006.91
2018-09-06T09:21:27.877Z,1006.89
2018-09-06T09:22:28.012Z,1006.90
2018-09-06T09:23:27.847Z,1006.88
2018-09-06T09:24:27.833Z,1006.90
2018-09-06T09:25:27.879Z,1006.81
2018-09-06T09:26:27.815Z,1006.85
2018-09-06T09:27:27.827Z,1006.85
2018-09-06T09:28:27.796Z,1006.83
2018-09-06T09:29:27.826Z,1006.88
2018-09-06T09:30:27.804Z,1006.82
2018-09-06T09:31:27.757Z,1006.82
2018-09-06T09:32:27.775Z,1006.85
2018-09-06T09:33:27.736Z,1006.84
2018-09-06T09:34:27.765Z,1006.82
2018-09-06T09:35:27.713Z,1006.84
2018-09-06T09:36:27.702Z,1006.84
2018-09-06T09:37:27.691Z,1006.84
2018-09-06T09:38:27.746Z,1006.81
2018-09-06T09:39:27.683Z,1006.79
2018-09-06T09:40:27.707Z,1006.83
2018-09-06T09:41:27.651Z,1006.80
2018-09-06T09:42:27.664Z,1006.80
2018-09-06T09:43:27.699Z,1006.85
2018-09-06T09:44:27.629Z,1006.81
2018-09-06T09:45:27.600Z,1006.82
2018-09-06T09:47:54.014Z,1006.77
2018-09-06T09:49:22.816Z,1006.75
2018-09-06T09:50:51.546Z,1006.73
2018-09-06T09:51:51.531Z,1006.65
2018-09-06T09:52:51.544Z,1006.70
2018-09-06T09:53:51.509Z,1006.71
2018-09-06T09:54:51.508Z,1006.72
2018-09-06T09:55:51.506Z,1006.70
2018-09-06T09:56:51.490Z,1006.69
2018-09-06T09:57:51.510Z,1006.69
2018-09-06T09:58:51.461Z,1006.68
2018-09-06T09:59:51.442Z,1006.72
2018-09-06T10:00:51.480Z,1006.73
2018-09-06T10:01:51.489Z,1006.72
2018-09-06T10:02:51.433Z,1006.69
2018-09-06T10:03:52.470Z,1006.71
2018-09-06T10:04:51.387Z,1006.72
2018-09-06T10:05:51.386Z,1006.74
2018-09-06T10:06:51.395Z,1006.77
2018-09-06T10:07:51.383Z,1006.77
2018-09-06T10:08:51.385Z,1006.77
2018-09-06T10:09:51.331Z,1006.68
2018-09-06T10:10:51.327Z,1006.72
2018-09-06T10:11:51.331Z,1006.72
2018-09-06T10:12:51.338Z,1006.71
2018-09-06T10:13:51.314Z,1006.74
2018-09-06T10:14:51.301Z,1006.78
2018-09-06T10:15:51.283Z,1006.80
2018-09-06T10:16:51.256Z,1006.79
2018-09-06T10:17:51.252Z,1006.80
2018-09-06T10:18:51.282Z,1006.78
2018-09-06T10:19:51.231Z,1006.83
2018-09-06T10:20:51.212Z,1006.82
2018-09-06T10:21:51.234Z,1006.80
2018-09-06T10:22:51.205Z,1006.81
2018-09-06T10:23:51.217Z,1006.79
2018-09-06T10:24:51.181Z,1006.78
2018-09-06T10:25:51.155Z,1006.80
2018-09-06T10:26:51.163Z,1006.84
2018-09-06T10:27:51.140Z,1006.79
2018-09-06T10:28:51.149Z,1006.77
2018-09-06T10:29:51.125Z,1006.79
2018-09-06T10:30:51.100Z,1006.74
2018-09-06T10:31:51.088Z,1006.76
2018-09-06T10:32:51.095Z,1006.75
2018-09-06T10:33:51.090Z,1006.74
2018-09-06T10:34:51.056Z,1006.75
2018-09-06T10:35:51.045Z,1006.76
2018-09-06T10:36:51.033Z,1006.73
2018-09-06T10:37:51.042Z,1006.73
2018-09-06T10:38:51.036Z,1006.72
2018-09-06T10:39:51.043Z,1006.74
2018-09-06T10:40:51.003Z,1006.74
2018-09-06T10:41:50.994Z,1006.76
2018-09-06T10:42:50.966Z,1006.71
2018-09-06T10:43:50.991Z,1006.71
2018-09-06T10:44:50.945Z,1006.73
2018-09-06T10:45:50.935Z,1006.75
2018-09-06T10:46:50.922Z,1006.70
2018-09-06T10:47:50.995Z,1006.71
2018-09-06T10:48:50.925Z,1006.69
2018-09-06T10:49:50.892Z,1006.67
2018-09-06T10:50:50.882Z,1006.64
2018-09-06T10:51:50.870Z,1006.63
2018-09-06T10:52:50.858Z,1006.65
2018-09-06T10:53:50.872Z,1006.62
2018-09-06T10:54:50.836Z,1006.61
2018-09-06T10:55:50.823Z,1006.59
2018-09-06T10:56:50.822Z,1006.57
2018-09-06T10:57:50.802Z,1006.55
2018-09-06T10:58:50.812Z,1006.53
2018-09-06T10:59:50.778Z,1006.53
2018-09-06T11:00:50.768Z,1006.51
2018-09-06T11:01:50.758Z,1006.46
2018-09-06T11:02:50.791Z,1006.49
2018-09-06T11:03:50.761Z,1006.47
2018-09-06T11:04:50.725Z,1006.46
2018-09-06T11:05:50.714Z,1006.44
2018-09-06T11:06:50.706Z,1006.42
2018-09-06T11:07:50.728Z,1006.40
2018-09-06T11:08:50.778Z,1006.37
2018-09-06T11:09:50.692Z,1006.35
2018-09-06T11:10:50.661Z,1006.36
2018-09-06T11:11:50.657Z,1006.36
2018-09-06T11:12:50.670Z,1006.37
2018-09-06T11:13:50.626Z,1006.35
2018-09-06T11:14:50.672Z,1006.39
2018-09-06T11:15:50.610Z,1006.36
2018-09-06T11:16:50.593Z,1006.37
2018-09-06T11:17:50.621Z,1006.38
2018-09-06T11:18:50.578Z,1006.37
2018-09-06T11:19:50.585Z,1006.37
2018-09-06T11:20:50.548Z,1006.40
2018-09-06T11:21:50.575Z,1006.38
2018-09-06T11:22:50.528Z,1006.37
2018-09-06T11:23:51.305Z,1006.38
2018-09-06T11:24:50.527Z,1006.36
2018-09-06T11:25:50.501Z,1006.38
2018-09-06T11:26:50.483Z,1006.36
2018-09-06T11:27:50.538Z,1006.31
2018-09-06T11:28:50.465Z,1006.35
2018-09-06T11:29:50.474Z,1006.34
2018-09-06T11:30:50.439Z,1006.32
2018-09-06T11:31:50.427Z,1006.32
2018-09-06T11:32:50.446Z,1006.31
2018-09-06T11:33:50.421Z,1006.33
2018-09-06T11:34:50.421Z,1006.31
2018-09-06T11:35:50.403Z,1006.29
2018-09-06T11:36:50.409Z,1006.29
2018-09-06T11:37:50.397Z,1006.21
2018-09-06T11:38:50.360Z,1006.21
2018-09-06T11:39:50.398Z,1006.23
2018-09-06T11:40:50.330Z,1006.22
2018-09-06T11:41:50.319Z,1006.21
2018-09-06T11:42:50.314Z,1006.21
2018-09-06T11:43:50.344Z,1006.24
2018-09-06T11:44:50.316Z,1006.24
2018-09-06T11:45:50.302Z,1006.24
2018-09-06T11:46:50.378Z,1006.26
2018-09-06T11:47:50.454Z,1006.21
2018-09-06T11:48:50.256Z,1006.26
2018-09-06T11:49:50.275Z,1006.23
2018-09-06T11:50:50.226Z,1006.18
2018-09-06T11:51:50.207Z,1006.15
2018-09-06T11:52:50.230Z,1006.18
2018-09-06T11:53:50.193Z,1006.14
2018-09-06T11:54:50.202Z,1006.13
2018-09-06T11:55:50.172Z,1006.13
2018-09-06T11:56:50.149Z,1006.16
2018-09-06T11:57:50.149Z,1006.15
2018-09-06T11:58:50.163Z,1006.13
2018-09-06T11:59:50.140Z,1006.14
2018-09-06T12:00:50.116Z,1006.11
2018-09-06T12:01:50.095Z,1006.11
2018-09-06T12:02:50.091Z,1006.10
2018-09-06T12:03:50.076Z,1006.10
2018-09-06T12:04:50.119Z,1006.14
2018-09-06T12:05:50.059Z,1006.10
2018-09-06T12:06:50.041Z,1006.12
2018-09-06T12:07:50.045Z,1006.19